Time;durP1;ratioP1;P1;durP2;ratioP2;P2;SDS_P1;SDS_P2;PMS_P1;PMS_P2;Temp;Humidity;BMP_temperature;BMP_pressure;BME280_temperature;BME280_humidity;BME280_pressure;Samples;Min_cycle;Max_cycle;Signal;HPM_P1;HPM_P2
2021/11/23 00:00:26;;;;;;;11.05;2.67;;;7.80;99.90;;;;;;5034247;28;20169;-78
2021/11/23 00:02:54;;;;;;;14.30;2.80;;;7.70;99.90;;;;;;5000126;28;20432;-78
2021/11/23 00:05:20;;;;;;;13.00;3.08;;;8.00;99.90;;;;;;5026859;28;20042;-77
2021/11/23 00:07:45;;;;;;;11.75;2.50;;;7.90;99.90;;;;;;5000458;28;20375;-77
2021/11/23 00:10:11;;;;;;;14.02;3.10;;;8.10;99.90;;;;;;5033354;28;20033;-77
2021/11/23 00:12:39;;;;;;;14.23;2.83;;;7.80;99.90;;;;;;5000661;28;20034;-77
2021/11/23 00:15:05;;;;;;;9.43;2.50;;;7.80;99.90;;;;;;4980008;28;20042;-81
2021/11/23 00:17:31;;;;;;;17.48;3.17;;;7.90;99.90;;;;;;5000857;28;20048;-81
2021/11/23 00:19:57;;;;;;;12.40;3.10;;;7.90;99.90;;;;;;5016017;28;21787;-81
2021/11/23 00:22:23;;;;;;;8.68;2.58;;;7.90;99.90;;;;;;4983115;28;20052;-81
2021/11/23 00:24:49;;;;;;;14.15;3.50;;;8.20;99.90;;;;;;5000365;28;20128;-79
2021/11/23 00:27:15;;;;;;;10.40;2.60;;;7.90;99.90;;;;;;5033397;28;20049;-79
2021/11/23 00:29:40;;;;;;;15.95;2.95;;;8.00;99.90;;;;;;4985454;28;20045;-76
2021/11/23 00:32:06;;;;;;;9.05;2.70;;;8.00;99.90;;;;;;4999860;28;20128;-76
2021/11/23 00:34:32;;;;;;;14.02;2.65;;;8.00;99.90;;;;;;5000485;28;20112;-76
2021/11/23 00:37:05;;;;;;;15.73;3.03;;;8.00;99.90;;;;;;5033326;28;20128;-76
2021/11/23 00:39:31;;;;;;;11.65;2.67;;;8.00;99.90;;;;;;5000324;28;20037;-78
2021/11/23 00:41:57;;;;;;;13.38;2.80;;;8.10;99.90;;;;;;5006265;28;20494;-78
2021/11/23 00:44:25;;;;;;;9.45;2.92;;;8.10;99.90;;;;;;5016694;28;20409;-78
2021/11/23 00:46:51;;;;;;;10.35;2.95;;;8.10;99.90;;;;;;5015810;28;20042;-78
2021/11/23 00:49:18;;;;;;;9.75;2.70;;;8.10;99.90;;;;;;5029801;28;20087;-78
2021/11/23 00:51:44;;;;;;;9.70;2.92;;;8.70;99.90;;;;;;5026612;28;20087;-77
2021/11/23 00:54:10;;;;;;;10.77;2.72;;;8.10;99.90;;;;;;5016882;28;20041;-78
2021/11/23 00:56:36;;;;;;;16.73;2.92;;;8.20;99.90;;;;;;5014175;28;20043;-77
2021/11/23 00:59:02;;;;;;;8.88;2.47;;;8.20;99.90;;;;;;4997121;28;20072;-77
2021/11/23 01:01:31;;;;;;;11.98;2.80;;;8.20;99.90;;;;;;5032857;28;20040;-76
2021/11/23 01:04:00;;;;;;;7.45;2.67;;;8.30;99.90;;;;;;5015936;28;20041;-76
2021/11/23 01:06:26;;;;;;;15.77;3.10;;;8.60;99.90;;;;;;5007529;28;20057;-76
2021/11/23 01:08:52;;;;;;;9.55;2.90;;;8.20;99.90;;;;;;5032377;28;20042;-76
2021/11/23 01:11:19;;;;;;;11.93;2.90;;;8.30;99.90;;;;;;5033324;28;20037;-76
2021/11/23 01:13:46;;;;;;;10.30;2.90;;;8.30;99.90;;;;;;5032495;28;20164;-76
2021/11/23 01:16:12;;;;;;;13.73;2.70;;;8.30;99.90;;;;;;5015725;28;20201;-77
2021/11/23 01:18:38;;;;;;;12.82;4.03;;;8.40;99.90;;;;;;5015115;28;20045;-77
2021/11/23 01:21:06;;;;;;;11.88;3.40;;;8.30;99.90;;;;;;5032534;28;20065;-77
2021/11/23 01:23:32;;;;;;;9.93;3.40;;;8.30;99.90;;;;;;4996334;28;20061;-77
2021/11/23 01:25:58;;;;;;;7.45;3.08;;;9.30;99.90;;;;;;5035225;28;20390;-78
2021/11/23 01:28:25;;;;;;;12.07;3.28;;;8.40;99.90;;;;;;4983763;28;20047;-78
2021/11/23 01:30:51;;;;;;;11.73;3.53;;;8.40;99.90;;;;;;5015069;28;20045;-78
2021/11/23 01:33:18;;;;;;;10.10;3.35;;;8.40;99.90;;;;;;5014953;28;20052;-78
2021/11/23 01:35:44;;;;;;;11.02;2.67;;;8.40;99.90;;;;;;4998977;28;20128;-78
2021/11/23 01:38:10;;;;;;;11.52;3.08;;;8.70;99.90;;;;;;4999767;28;20042;-78
2021/11/23 01:40:36;;;;;;;9.98;2.60;;;8.40;99.90;;;;;;5012699;28;20103;-78
2021/11/23 01:43:05;;;;;;;8.82;2.70;;;8.80;99.90;;;;;;5032131;28;20096;-78
2021/11/23 01:45:38;;;;;;;8.73;2.85;;;8.50;99.90;;;;;;4999535;28;20317;-78
2021/11/23 01:48:06;;;;;;;7.57;2.45;;;8.50;99.90;;;;;;4993778;28;20100;-78
2021/11/23 01:50:33;;;;;;;17.08;2.67;;;8.50;99.90;;;;;;4997661;28;20045;-78
2021/11/23 01:53:00;;;;;;;15.52;2.63;;;8.50;99.90;;;;;;5029515;28;20103;-78
2021/11/23 01:55:27;;;;;;;10.82;2.55;;;8.50;99.90;;;;;;5015120;28;20067;-78
2021/11/23 01:57:53;;;;;;;13.80;2.75;;;8.70;99.90;;;;;;5015342;28;20128;-78
2021/11/23 02:00:19;;;;;;;11.10;2.53;;;8.50;99.90;;;;;;5014898;28;20132;-78
2021/11/23 02:02:46;;;;;;;12.73;3.03;;;8.50;99.90;;;;;;5032796;28;20045;-78
2021/11/23 02:05:13;;;;;;;16.35;3.30;;;8.50;99.90;;;;;;5002788;28;20034;-79
2021/11/23 02:07:40;;;;;;;18.30;3.55;;;8.50;99.90;;;;;;5033479;28;20405;-79
2021/11/23 02:10:10;;;;;;;13.75;3.33;;;8.60;99.90;;;;;;4994616;28;20125;-79
2021/11/23 02:12:36;;;;;;;12.35;3.45;;;8.60;99.90;;;;;;5004084;28;20043;-79
2021/11/23 02:15:04;;;;;;;12.48;3.83;;;8.60;99.90;;;;;;5010494;28;20413;-78
2021/11/23 02:17:30;;;;;;;12.27;3.30;;;8.60;99.90;;;;;;5015033;28;20050;-78
2021/11/23 02:20:01;;;;;;;11.55;3.58;;;8.60;99.90;;;;;;4996202;28;20444;-77
2021/11/23 02:22:27;;;;;;;14.70;2.70;;;8.60;99.90;;;;;;5001924;28;20125;-76
2021/11/23 02:24:53;;;;;;;14.57;2.53;;;8.70;99.90;;;;;;5031054;28;20061;-76
2021/11/23 02:27:18;;;;;;;11.57;2.80;;;8.70;99.90;;;;;;4997654;28;20041;-77
2021/11/23 02:29:44;;;;;;;9.52;2.03;;;8.90;99.90;;;;;;4982358;28;20041;-77
2021/11/23 02:32:10;;;;;;;12.20;2.60;;;8.70;99.90;;;;;;5010982;28;20041;-76
2021/11/23 02:34:36;;;;;;;7.50;2.00;;;8.70;99.90;;;;;;4981626;28;20034;-76
2021/11/23 02:37:02;;;;;;;13.70;2.33;;;8.70;99.90;;;;;;4996991;28;20061;-76
2021/11/23 02:39:28;;;;;;;10.38;2.85;;;8.70;99.90;;;;;;5028692;28;20390;-76
2021/11/23 02:41:54;;;;;;;7.82;1.95;;;8.70;99.90;;;;;;5013471;28;20052;-76
2021/11/23 02:44:20;;;;;;;11.15;2.35;;;8.60;99.90;;;;;;5013685;28;20049;-76
2021/11/23 02:46:46;;;;;;;17.42;2.30;;;8.70;99.90;;;;;;5014323;28;20048;-76
2021/11/23 02:49:13;;;;;;;13.38;2.28;;;8.80;99.90;;;;;;5014756;28;20429;-76
2021/11/23 02:51:40;;;;;;;10.68;2.30;;;8.70;99.90;;;;;;4998143;28;20029;-76
2021/11/23 02:54:06;;;;;;;19.65;2.70;;;8.80;99.90;;;;;;4996765;28;20091;-76
2021/11/23 02:56:32;;;;;;;9.60;2.58;;;8.80;99.90;;;;;;4978520;28;20046;-76
2021/11/23 02:58:58;;;;;;;10.35;2.22;;;8.70;99.90;;;;;;5008266;28;20037;-76
2021/11/23 03:01:28;;;;;;;11.90;2.25;;;8.80;99.90;;;;;;5014890;28;20045;-76
2021/11/23 03:03:54;;;;;;;17.08;2.45;;;9.30;99.90;;;;;;5014127;28;20513;-76
2021/11/23 03:06:21;;;;;;;12.25;1.95;;;8.80;99.90;;;;;;5013843;28;20050;-77
2021/11/23 03:08:49;;;;;;;10.15;1.80;;;8.80;99.90;;;;;;5014415;28;20541;-76
2021/11/23 03:11:17;;;;;;;13.90;2.05;;;8.80;99.90;;;;;;4995783;28;20034;-77
2021/11/23 03:13:43;;;;;;;12.38;1.88;;;8.80;99.90;;;;;;5028103;28;20069;-77
2021/11/23 03:16:09;;;;;;;19.02;2.80;;;8.80;99.90;;;;;;5030714;28;20037;-77
2021/11/23 03:18:35;;;;;;;22.35;2.65;;;8.80;99.90;;;;;;5017005;28;20402;-77
2021/11/23 03:21:01;;;;;;;12.77;2.78;;;8.80;99.90;;;;;;4966723;28;20433;-77
2021/11/23 03:23:27;;;;;;;18.13;2.70;;;8.80;99.90;;;;;;5001912;28;20045;-77
2021/11/23 03:25:53;;;;;;;13.55;2.95;;;8.80;99.90;;;;;;5001831;28;20052;-77
2021/11/23 03:28:19;;;;;;;19.70;2.97;;;8.80;99.90;;;;;;5032191;28;20513;-77
2021/11/23 03:30:45;;;;;;;17.25;2.85;;;9.00;99.90;;;;;;5001677;28;20041;-77
2021/11/23 03:33:11;;;;;;;18.77;2.70;;;8.80;99.90;;;;;;5018230;28;20041;-77
2021/11/23 03:35:39;;;;;;;15.48;2.88;;;8.80;99.90;;;;;;5034568;28;20131;-77
2021/11/23 03:38:07;;;;;;;13.95;2.83;;;8.80;99.90;;;;;;5001502;28;20047;-77
2021/11/23 03:40:35;;;;;;;17.42;2.95;;;8.20;99.90;;;;;;5034542;28;20125;-77
2021/11/23 03:43:02;;;;;;;16.58;3.55;;;9.60;99.90;;;;;;5010492;28;20471;-77
2021/11/23 03:45:29;;;;;;;16.10;2.92;;;8.80;99.90;;;;;;4977928;28;20049;-77
2021/11/23 03:47:55;;;;;;;18.23;3.00;;;9.70;99.90;;;;;;4997831;28;20052;-78
2021/11/23 03:50:23;;;;;;;12.98;2.97;;;8.80;99.90;;;;;;5001648;28;20045;-78
2021/11/23 03:52:49;;;;;;;17.20;3.22;;;8.80;99.90;;;;;;5035679;28;20077;-78
2021/11/23 03:55:17;;;;;;;17.40;2.97;;;8.80;99.90;;;;;;5024557;28;20037;-78
2021/11/23 03:57:45;;;;;;;16.98;2.53;;;8.80;99.90;;;;;;5032393;28;20049;-78
2021/11/23 04:00:13;;;;;;;19.00;2.55;;;8.80;99.90;;;;;;4982821;28;20053;-75
2021/11/23 04:02:39;;;;;;;16.45;2.17;;;8.80;99.90;;;;;;5017460;28;20528;-76
2021/11/23 04:05:07;;;;;;;17.63;2.80;;;8.70;99.90;;;;;;4997420;28;20049;-75
2021/11/23 04:07:33;;;;;;;22.63;3.85;;;8.70;99.90;;;;;;5010853;28;20498;-75
2021/11/23 04:09:59;;;;;;;14.25;3.47;;;9.00;99.90;;;;;;5032149;28;20045;-76
2021/11/23 04:12:24;;;;;;;15.23;2.92;;;8.70;99.90;;;;;;5017590;28;20045;-77
2021/11/23 04:14:50;;;;;;;11.05;2.22;;;8.70;99.90;;;;;;5000879;28;20397;-78
2021/11/23 04:17:16;;;;;;;11.73;2.05;;;8.70;99.90;;;;;;4992723;28;20037;-76
2021/11/23 04:19:45;;;;;;;12.07;1.55;;;8.70;99.90;;;;;;5030415;28;20095;-78
2021/11/23 04:22:12;;;;;;;12.35;2.20;;;8.20;99.90;;;;;;5000961;28;20045;-77
2021/11/23 04:24:38;;;;;;;9.50;1.63;;;8.70;99.90;;;;;;5017320;28;20332;-77
2021/11/23 04:27:06;;;;;;;5.03;1.48;;;8.70;99.90;;;;;;4996961;28;20121;-79
2021/11/23 04:29:35;;;;;;;17.88;2.25;;;8.70;99.90;;;;;;5013388;28;20050;-79
2021/11/23 04:32:00;;;;;;;17.60;1.98;;;8.60;99.90;;;;;;4984501;28;20179;-79
2021/11/23 04:34:26;;;;;;;20.55;3.35;;;8.60;99.90;;;;;;5014549;28;20128;-79
2021/11/23 04:36:52;;;;;;;16.80;2.17;;;8.60;99.90;;;;;;5014951;28;20042;-79
2021/11/23 04:39:21;;;;;;;10.25;1.48;;;8.60;99.90;;;;;;5017135;28;20424;-79
2021/11/23 04:41:47;;;;;;;12.13;2.10;;;8.60;99.90;;;;;;5016795;28;20046;-79
2021/11/23 04:44:13;;;;;;;11.77;2.22;;;8.60;99.90;;;;;;5000595;28;20064;-79
2021/11/23 04:46:38;;;;;;;13.70;1.90;;;9.00;99.90;;;;;;5016840;28;20041;-79
2021/11/23 04:49:04;;;;;;;15.15;2.30;;;8.60;99.90;;;;;;4980418;28;20045;-78
2021/11/23 04:51:30;;;;;;;13.85;2.33;;;8.60;99.90;;;;;;5023556;28;20045;-79
2021/11/23 04:53:56;;;;;;;11.77;2.13;;;8.60;99.90;;;;;;5013234;28;20040;-79
2021/11/23 04:56:22;;;;;;;16.95;2.38;;;8.60;99.90;;;;;;5016653;28;20052;-79
2021/11/23 04:58:47;;;;;;;17.58;2.30;;;8.60;99.90;;;;;;5000627;28;20042;-79
2021/11/23 05:01:16;;;;;;;17.17;2.50;;;8.60;99.90;;;;;;4997306;28;20041;-79
2021/11/23 05:03:41;;;;;;;13.35;2.08;;;8.60;99.90;;;;;;4977310;28;20107;-79
2021/11/23 05:06:07;;;;;;;16.83;2.60;;;8.50;99.90;;;;;;5030131;28;20038;-79
2021/11/23 05:08:36;;;;;;;18.65;2.33;;;8.50;99.90;;;;;;5000020;28;20037;-79
2021/11/23 05:11:03;;;;;;;12.00;2.35;;;8.50;99.90;;;;;;4998818;28;20120;-79
2021/11/23 05:13:28;;;;;;;17.70;2.28;;;8.50;99.90;;;;;;5016211;28;20111;-79
2021/11/23 05:15:57;;;;;;;14.02;2.42;;;8.50;99.90;;;;;;5016290;28;20116;-79
2021/11/23 05:18:23;;;;;;;16.17;2.75;;;8.50;99.90;;;;;;5015760;28;20099;-79
2021/11/23 05:20:49;;;;;;;15.05;2.50;;;8.50;99.90;;;;;;5016365;28;20033;-79
2021/11/23 05:23:14;;;;;;;14.10;2.10;;;8.40;99.90;;;;;;5032586;28;20049;-77
2021/11/23 05:25:40;;;;;;;15.68;2.45;;;8.40;99.90;;;;;;5016156;28;20049;-77
2021/11/23 05:28:06;;;;;;;13.65;2.33;;;8.40;99.90;;;;;;5017444;28;20100;-79
2021/11/23 05:30:32;;;;;;;16.98;2.88;;;8.90;99.90;;;;;;5015382;28;20048;-79
2021/11/23 05:32:57;;;;;;;20.90;2.80;;;8.40;99.90;;;;;;4999588;28;20108;-79
2021/11/23 05:35:23;;;;;;;12.60;2.60;;;8.80;99.90;;;;;;4980072;28;20041;-78
2021/11/23 05:37:49;;;;;;;17.80;2.47;;;8.90;99.90;;;;;;5023465;28;20092;-78
2021/11/23 05:40:17;;;;;;;13.82;2.45;;;8.40;99.90;;;;;;5031794;28;20091;-78
2021/11/23 05:42:43;;;;;;;17.52;2.20;;;8.40;99.90;;;;;;5013522;28;20053;-78
2021/11/23 05:45:11;;;;;;;21.67;2.83;;;8.40;99.90;;;;;;4998315;28;20049;-78
2021/11/23 05:47:38;;;;;;;17.90;2.35;;;8.30;99.90;;;;;;4983367;28;20073;-78
2021/11/23 05:50:05;;;;;;;14.18;2.10;;;8.40;99.90;;;;;;5015557;28;20034;-78
2021/11/23 05:52:31;;;;;;;11.32;2.13;;;8.30;99.90;;;;;;4998724;28;20045;-79
2021/11/23 05:54:57;;;;;;;14.60;2.20;;;8.30;99.90;;;;;;5015417;28;20052;-78
2021/11/23 05:57:26;;;;;;;13.52;2.35;;;8.30;99.90;;;;;;5015791;28;20422;-78
2021/11/23 05:59:54;;;;;;;12.40;2.33;;;8.30;99.90;;;;;;5013643;28;20402;-78
2021/11/23 06:02:20;;;;;;;11.52;2.35;;;8.30;99.90;;;;;;4996357;28;20053;-78
2021/11/23 06:04:46;;;;;;;19.42;3.03;;;8.20;99.90;;;;;;4982791;28;20489;-78
2021/11/23 06:07:12;;;;;;;16.77;3.05;;;8.20;99.90;;;;;;4999006;28;20049;-78
2021/11/23 06:09:40;;;;;;;17.17;2.22;;;8.20;99.90;;;;;;5015319;28;20038;-78
2021/11/23 06:12:06;;;;;;;18.67;2.53;;;8.20;99.90;;;;;;4998774;28;20044;-79
2021/11/23 06:14:32;;;;;;;13.00;2.20;;;8.20;99.90;;;;;;5015284;28;20042;-78
2021/11/23 06:16:58;;;;;;;12.90;1.95;;;8.20;99.90;;;;;;5013980;28;20063;-78
2021/11/23 06:19:24;;;;;;;20.00;2.05;;;8.20;99.90;;;;;;4997904;28;20045;-77
2021/11/23 06:21:50;;;;;;;11.80;2.25;;;8.20;99.90;;;;;;5032899;28;20038;-78
2021/11/23 06:24:18;;;;;;;13.40;2.10;;;8.20;99.90;;;;;;5015046;28;20115;-78
2021/11/23 06:26:44;;;;;;;16.92;2.35;;;8.20;99.90;;;;;;5014920;28;20045;-78
2021/11/23 06:29:10;;;;;;;13.63;2.53;;;8.20;99.90;;;;;;4998677;28;20044;-77
2021/11/23 06:31:35;;;;;;;8.45;2.10;;;8.20;99.90;;;;;;4982212;28;20450;-77
2021/11/23 06:34:08;;;;;;;17.23;2.50;;;8.10;99.90;;;;;;5013432;28;20042;-77
2021/11/23 06:36:34;;;;;;;11.65;2.42;;;8.20;99.90;;;;;;4978038;28;20534;-77
2021/11/23 06:39:02;;;;;;;11.73;2.42;;;8.20;99.90;;;;;;4998058;28;20045;-77
2021/11/23 06:41:28;;;;;;;16.77;2.60;;;9.00;99.90;;;;;;4995335;28;20041;-78
2021/11/23 06:43:55;;;;;;;15.90;2.70;;;8.20;99.90;;;;;;5028952;28;20107;-78
2021/11/23 06:46:22;;;;;;;12.63;2.10;;;8.20;99.90;;;;;;5032646;28;20448;-78
2021/11/23 06:48:47;;;;;;;7.95;1.98;;;8.10;99.90;;;;;;4982037;28;20049;-77
2021/11/23 06:51:13;;;;;;;13.48;2.35;;;8.40;99.90;;;;;;4996081;28;20098;-78
2021/11/23 06:53:39;;;;;;;9.50;2.22;;;8.20;99.90;;;;;;5014753;28;20084;-79
2021/11/23 06:56:05;;;;;;;15.93;2.30;;;8.20;99.90;;;;;;5014487;28;20091;-79
2021/11/23 06:58:30;;;;;;;15.43;2.40;;;8.20;99.90;;;;;;5013981;28;20041;-85
2021/11/23 07:00:56;;;;;;;12.38;2.70;;;8.20;99.90;;;;;;4977007;28;20420;-86
2021/11/23 07:03:22;;;;;;;14.45;2.28;;;8.20;99.90;;;;;;4989665;28;20348;-87
2021/11/23 07:05:48;;;;;;;10.25;2.45;;;8.20;99.90;;;;;;4980276;28;20120;-85
2021/11/23 07:08:16;;;;;;;12.55;2.13;;;8.20;99.90;;;;;;4996276;28;20051;-87
2021/11/23 07:10:42;;;;;;;15.57;2.63;;;8.20;99.90;;;;;;5031906;28;20111;-87
2021/11/23 07:13:11;;;;;;;14.88;2.25;;;8.20;99.90;;;;;;4984487;28;20041;-87
2021/11/23 07:15:37;;;;;;;12.60;2.03;;;8.60;99.90;;;;;;5034111;28;20033;-88
2021/11/23 07:18:03;;;;;;;14.85;2.72;;;8.20;99.90;;;;;;4998056;28;20103;-87
2021/11/23 07:20:29;;;;;;;16.17;2.25;;;8.30;99.90;;;;;;5036661;28;20041;-88
2021/11/23 07:22:55;;;;;;;9.90;2.40;;;8.30;99.90;;;;;;4986982;28;20052;-88
2021/11/23 07:25:24;;;;;;;15.90;2.78;;;8.30;99.90;;;;;;5013886;28;20053;-85
2021/11/23 07:27:50;;;;;;;12.25;2.65;;;8.30;99.90;;;;;;5012291;28;20046;-83
2021/11/23 07:30:18;;;;;;;13.15;2.65;;;8.30;99.90;;;;;;4994381;28;20034;-83
2021/11/23 07:32:44;;;;;;;14.55;2.45;;;8.50;99.90;;;;;;5027944;28;20082;-83
2021/11/23 07:35:10;;;;;;;10.98;2.60;;;8.40;99.90;;;;;;4990660;28;20042;-83
2021/11/23 07:37:41;;;;;;;13.68;2.22;;;8.40;99.90;;;;;;5002367;28;20116;-83
2021/11/23 07:40:09;;;;;;;13.93;2.75;;;8.80;99.90;;;;;;4957730;28;20124;-85
2021/11/23 07:42:35;;;;;;;18.38;2.88;;;8.40;99.90;;;;;;4992543;28;20042;-77
2021/11/23 07:45:01;;;;;;;18.00;3.03;;;8.40;99.90;;;;;;5022010;28;20046;-76
2021/11/23 07:47:27;;;;;;;18.23;2.28;;;8.50;99.90;;;;;;5005708;28;20095;-76
2021/11/23 07:49:53;;;;;;;16.55;2.38;;;8.30;99.90;;;;;;5013035;28;20482;-79
2021/11/23 07:52:19;;;;;;;10.45;2.33;;;8.30;99.90;;;;;;4994277;28;20052;-79
2021/11/23 07:54:45;;;;;;;11.30;2.45;;;8.30;99.90;;;;;;4996449;28;20037;-78
2021/11/23 07:57:11;;;;;;;21.60;2.45;;;8.40;99.90;;;;;;4995369;28;20034;-85
2021/11/23 07:59:37;;;;;;;13.18;2.28;;;8.40;99.90;;;;;;4994047;28;20485;-78
2021/11/23 08:02:03;;;;;;;12.93;2.55;;;8.40;99.90;;;;;;4994649;28;20036;-79
2021/11/23 08:04:28;;;;;;;10.02;2.28;;;8.40;99.90;;;;;;4982408;28;21551;-79
2021/11/23 08:06:54;;;;;;;18.70;2.83;;;8.50;99.90;;;;;;5031799;28;20091;-80
2021/11/23 08:09:20;;;;;;;13.85;2.80;;;8.40;99.90;;;;;;4982006;28;20258;-80
2021/11/23 08:11:46;;;;;;;15.13;2.80;;;8.40;99.90;;;;;;5015648;28;20069;-79
2021/11/23 08:14:12;;;;;;;12.70;2.83;;;8.30;99.90;;;;;;5016852;28;20405;-79
2021/11/23 08:16:37;;;;;;;13.07;3.40;;;8.70;99.90;;;;;;4998224;28;20124;-80
2021/11/23 08:19:03;;;;;;;12.80;2.38;;;8.30;99.90;;;;;;5032272;28;20049;-77
2021/11/23 08:21:31;;;;;;;14.40;3.03;;;8.30;99.90;;;;;;5030330;28;20393;-80
2021/11/23 08:23:58;;;;;;;14.20;3.03;;;8.60;99.90;;;;;;5017318;28;20100;-80
2021/11/23 08:26:24;;;;;;;15.43;3.17;;;8.30;99.90;;;;;;5017217;28;20048;-80
2021/11/23 08:28:50;;;;;;;19.13;3.33;;;8.20;99.90;;;;;;5017531;28;20045;-80
2021/11/23 08:31:16;;;;;;;16.08;2.80;;;8.20;99.90;;;;;;5000926;28;20091;-80
2021/11/23 08:33:42;;;;;;;17.00;2.78;;;8.20;99.90;;;;;;4997565;28;20367;-80
2021/11/23 08:36:08;;;;;;;11.93;2.38;;;8.20;99.90;;;;;;4991142;28;20432;-80
2021/11/23 08:38:36;;;;;;;11.98;2.42;;;8.20;99.90;;;;;;4991778;28;20053;-80
2021/11/23 08:41:02;;;;;;;17.48;2.70;;;8.20;99.90;;;;;;5017782;28;20044;-80
2021/11/23 08:43:28;;;;;;;16.40;2.60;;;8.20;99.90;;;;;;5028086;28;20049;-80
2021/11/23 08:45:54;;;;;;;13.65;2.40;;;8.20;99.90;;;;;;5033918;28;20113;-80
2021/11/23 08:48:19;;;;;;;13.75;2.78;;;8.20;99.90;;;;;;5001140;28;20045;-80
2021/11/23 08:50:45;;;;;;;11.82;2.30;;;8.20;99.90;;;;;;5035128;28;20076;-80
2021/11/23 08:53:11;;;;;;;11.02;2.25;;;8.20;99.90;;;;;;5001449;28;20037;-80
2021/11/23 08:55:38;;;;;;;12.40;2.03;;;8.20;99.90;;;;;;5016436;28;20385;-80
2021/11/23 08:58:05;;;;;;;17.88;2.90;;;8.20;99.90;;;;;;5017162;28;20057;-79
2021/11/23 09:00:31;;;;;;;19.88;2.65;;;8.20;99.90;;;;;;5033013;28;20098;-80
2021/11/23 09:03:00;;;;;;;13.35;2.53;;;8.20;99.90;;;;;;5034662;28;20041;-80
2021/11/23 09:05:32;;;;;;;18.38;2.90;;;8.20;99.90;;;;;;5016506;28;20041;-80
2021/11/23 09:08:02;;;;;;;8.07;2.30;;;8.30;99.90;;;;;;5002899;28;20095;-80
2021/11/23 09:10:31;;;;;;;13.48;2.33;;;8.40;99.90;;;;;;5013275;28;20033;-79
2021/11/23 09:12:59;;;;;;;15.60;2.42;;;8.40;99.90;;;;;;5027061;28;20458;-79
2021/11/23 09:15:25;;;;;;;13.52;2.30;;;8.50;99.90;;;;;;4996449;28;20042;-81
2021/11/23 09:17:58;;;;;;;13.15;2.45;;;8.50;99.90;;;;;;5015086;28;20060;-80
2021/11/23 09:20:26;;;;;;;13.68;2.80;;;8.60;99.90;;;;;;5025764;28;20048;-75
2021/11/23 09:22:51;;;;;;;10.02;2.08;;;8.50;99.90;;;;;;4994727;28;20052;-78
2021/11/23 09:25:17;;;;;;;13.32;2.30;;;8.60;99.90;;;;;;5020295;28;20433;-78
2021/11/23 09:27:44;;;;;;;14.20;2.40;;;8.60;99.90;;;;;;5019103;28;20059;-78
2021/11/23 09:30:13;;;;;;;31.02;4.20;;;8.60;99.90;;;;;;5023359;28;20034;-78
2021/11/23 09:32:39;;;;;;;12.80;2.50;;;8.70;99.90;;;;;;5022145;28;20033;-78
2021/11/23 09:35:05;;;;;;;15.70;2.40;;;8.70;99.90;;;;;;5014798;28;20081;-78
2021/11/23 09:37:31;;;;;;;8.95;2.20;;;8.80;99.90;;;;;;4992178;28;20050;-78
2021/11/23 09:39:57;;;;;;;13.05;2.70;;;9.30;99.90;;;;;;4991433;28;20441;-78
2021/11/23 09:42:23;;;;;;;11.60;2.15;;;9.00;99.90;;;;;;4974920;28;20042;-78
2021/11/23 09:44:50;;;;;;;16.02;2.92;;;9.10;99.90;;;;;;5016730;28;20052;-78
2021/11/23 09:47:16;;;;;;;21.10;3.63;;;9.00;99.90;;;;;;5004330;28;20092;-78
2021/11/23 09:49:42;;;;;;;21.40;5.10;;;9.10;99.90;;;;;;5006314;28;20125;-78
2021/11/23 09:52:08;;;;;;;11.60;2.60;;;9.00;99.90;;;;;;5000533;28;20117;-78
2021/11/23 09:54:34;;;;;;;16.13;2.80;;;9.10;99.90;;;;;;5004451;28;20029;-80
2021/11/23 09:57:00;;;;;;;16.15;3.00;;;9.00;99.90;;;;;;4989221;28;20037;-76
2021/11/23 09:59:26;;;;;;;13.95;2.60;;;9.00;99.90;;;;;;5004793;28;20046;-76
2021/11/23 10:01:55;;;;;;;16.90;2.80;;;9.00;99.90;;;;;;4988843;28;20048;-76
2021/11/23 10:04:23;;;;;;;21.73;3.10;;;9.00;99.90;;;;;;5015436;28;20372;-75
2021/11/23 10:06:56;;;;;;;16.27;2.72;;;9.00;99.90;;;;;;5000601;28;20132;-75
2021/11/23 10:09:40;;;;;;;16.52;2.35;;;9.10;99.90;;;;;;5016613;28;20053;-76
2021/11/23 10:12:19;;;;;;;21.38;3.13;;;9.10;99.90;;;;;;5021927;28;20128;-76
2021/11/23 10:15:06;;;;;;;12.73;2.53;;;9.10;99.90;;;;;;4992077;28;20033;-76
2021/11/23 10:17:32;;;;;;;15.52;3.15;;;9.10;99.90;;;;;;5018838;28;20478;-75
2021/11/23 10:19:58;;;;;;;16.08;2.83;;;9.10;99.90;;;;;;5019739;28;20110;-80
2021/11/23 10:22:35;;;;;;;13.98;2.67;;;9.20;99.90;;;;;;4989998;28;20103;-81
2021/11/23 10:25:06;;;;;;;13.70;2.40;;;9.30;99.90;;;;;;5009886;28;20049;-82
2021/11/23 10:27:33;;;;;;;19.50;2.63;;;9.30;99.90;;;;;;5029267;28;20046;-82
2021/11/23 10:30:00;;;;;;;12.60;2.28;;;9.40;99.90;;;;;;5014921;28;20037;-82
2021/11/23 10:32:27;;;;;;;17.42;2.33;;;9.50;99.90;;;;;;4998609;28;20037;-82
2021/11/23 10:34:53;;;;;;;17.42;2.55;;;9.50;99.90;;;;;;5014776;28;20037;-82
2021/11/23 10:37:33;;;;;;;17.98;2.60;;;10.20;99.90;;;;;;4997993;28;20049;-82
2021/11/23 10:40:14;;;;;;;13.80;2.00;;;9.70;99.90;;;;;;5015169;28;20041;-82
2021/11/23 10:42:41;;;;;;;17.05;2.92;;;9.80;99.90;;;;;;5003108;28;20065;-82
2021/11/23 10:45:09;;;;;;;9.73;2.55;;;10.00;99.90;;;;;;5031020;28;20049;-82
2021/11/23 10:47:46;;;;;;;17.77;2.70;;;9.90;99.90;;;;;;4997876;28;20502;-81
2021/11/23 10:50:14;;;;;;;5.63;1.80;;;9.90;99.90;;;;;;4992583;28;20045;-82
2021/11/23 10:52:44;;;;;;;13.00;2.25;;;9.90;99.90;;;;;;5014968;28;20469;-81
2021/11/23 10:55:31;;;;;;;16.25;2.53;;;9.90;99.90;;;;;;5014466;28;20505;-82
2021/11/23 10:58:00;;;;;;;11.13;3.00;;;9.80;99.90;;;;;;5006723;28;20037;-82
2021/11/23 11:00:29;;;;;;;11.05;2.78;;;9.90;99.90;;;;;;5030022;28;20576;-82
2021/11/23 11:03:03;;;;;;;17.95;2.60;;;9.90;99.90;;;;;;5008870;28;20153;-82
2021/11/23 11:05:35;;;;;;;17.17;2.90;;;9.90;99.90;;;;;;4993131;28;20050;-82
2021/11/23 11:08:02;;;;;;;7.35;1.77;;;9.90;99.90;;;;;;5030665;28;20053;-82
2021/11/23 11:10:32;;;;;;;10.20;1.92;;;9.90;99.90;;;;;;4996527;28;20046;-81
2021/11/23 11:13:00;;;;;;;7.57;1.77;;;10.20;99.90;;;;;;5010176;28;20037;-82
2021/11/23 11:15:50;;;;;;;10.68;2.00;;;9.80;99.90;;;;;;5029278;28;20172;-82
2021/11/23 11:18:17;;;;;;;11.50;1.50;;;9.80;99.90;;;;;;5011774;28;20057;-83
2021/11/23 11:20:47;;;;;;;9.90;1.83;;;9.80;99.90;;;;;;5012004;28;20046;-82
2021/11/23 11:23:42;;;;;;;9.40;1.92;;;9.80;99.90;;;;;;5014021;28;20045;-82
2021/11/23 11:28:48;;;;;;;8.27;1.83;;;10.00;99.90;;;;;;5014121;28;20041;-82
2021/11/23 11:31:38;;;;;;;9.68;1.83;;;9.90;99.90;;;;;;4997804;28;20060;-82
2021/11/23 11:34:41;;;;;;;14.82;2.15;;;10.00;99.90;;;;;;4998129;28;20041;-82
2021/11/23 11:37:19;;;;;;;9.52;1.42;;;10.00;99.90;;;;;;4996629;28;20046;-82
2021/11/23 11:39:54;;;;;;;12.68;1.73;;;10.30;99.90;;;;;;5017320;28;20038;-82
2021/11/23 11:42:25;;;;;;;8.68;2.00;;;10.10;99.90;;;;;;5017966;28;20190;-83
2021/11/23 11:44:53;;;;;;;10.95;2.03;;;10.10;99.90;;;;;;5034525;28;20096;-82
2021/11/23 11:47:31;;;;;;;12.73;1.98;;;10.10;99.90;;;;;;5001576;28;20041;-82
2021/11/23 11:50:02;;;;;;;11.93;2.05;;;10.20;99.90;;;;;;5001873;28;20439;-82
2021/11/23 11:52:44;;;;;;;11.52;2.03;;;10.30;99.90;;;;;;5017550;28;20505;-82
2021/11/23 11:55:22;;;;;;;14.82;1.65;;;10.10;99.90;;;;;;5018091;28;20425;-83
2021/11/23 11:57:51;;;;;;;11.05;1.35;;;10.10;99.90;;;;;;5020873;28;20041;-82
2021/11/23 12:00:41;;;;;;;10.00;1.30;;;10.20;99.90;;;;;;5018029;28;20037;-83
2021/11/23 12:03:18;;;;;;;15.15;1.70;;;10.20;99.90;;;;;;4986196;28;20525;-82
2021/11/23 12:05:47;;;;;;;11.80;1.52;;;10.20;99.90;;;;;;5013100;28;20442;-82
2021/11/23 12:08:35;;;;;;;9.00;1.80;;;10.20;99.90;;;;;;5017086;28;20049;-82
2021/11/23 12:11:07;;;;;;;9.02;1.48;;;10.30;99.90;;;;;;5001479;28;20252;-82
2021/11/23 12:13:44;;;;;;;12.05;1.88;;;10.60;99.90;;;;;;5017609;28;20073;-83
2021/11/23 12:16:21;;;;;;;11.07;1.92;;;10.30;99.90;;;;;;5017621;28;20042;-82
2021/11/23 12:19:42;;;;;;;10.80;1.45;;;10.30;99.90;;;;;;5017357;28;20037;-82
2021/11/23 12:22:29;;;;;;;12.20;1.85;;;10.40;99.90;;;;;;4938964;29;20053;-82
2021/11/23 12:25:03;;;;;;;11.93;1.80;;;10.40;99.90;;;;;;5012630;28;20088;-82
2021/11/23 12:27:34;;;;;;;15.90;2.08;;;10.40;99.90;;;;;;5017239;28;20049;-82
2021/11/23 12:30:00;;;;;;;10.57;1.70;;;10.40;99.90;;;;;;5017110;28;20041;-82
2021/11/23 12:32:50;;;;;;;12.07;1.65;;;10.60;99.90;;;;;;5034951;28;20132;-82
2021/11/23 12:35:16;;;;;;;10.07;1.63;;;10.40;99.90;;;;;;5000705;28;20064;-82
2021/11/23 12:37:47;;;;;;;13.15;1.75;;;10.40;99.90;;;;;;5022396;28;20045;-82
2021/11/23 12:40:25;;;;;;;9.85;1.85;;;10.30;99.90;;;;;;5004929;28;20042;-82
2021/11/23 12:43:03;;;;;;;8.90;1.90;;;10.20;99.90;;;;;;5017102;28;20049;-82
2021/11/23 12:45:41;;;;;;;9.50;1.90;;;10.20;99.90;;;;;;5033285;28;20564;-82
2021/11/23 12:48:16;;;;;;;8.55;1.85;;;10.20;99.90;;;;;;5016856;28;20041;-82
2021/11/23 12:50:43;;;;;;;6.88;1.60;;;10.20;99.90;;;;;;5016183;28;20536;-82
2021/11/23 12:53:17;;;;;;;13.65;1.88;;;10.30;99.90;;;;;;4984446;28;20033;-82
2021/11/23 12:55:53;;;;;;;11.20;1.92;;;10.30;99.90;;;;;;4999984;28;20099;-82